Time;durP1;ratioP1;P1;durP2;ratioP2;P2;SDS_P1;SDS_P2;PMS_P1;PMS_P2;Temp;Humidity;BMP_temperature;BMP_pressure;BME280_temperature;BME280_humidity;BME280_pressure;Samples;Min_cycle;Max_cycle;Signal;HPM_P1;HPM_P2
2023/04/05 00:00:07;;;;;;;3.57;2.27;;;;;;;;;;5023134;28;20200;-64
2023/04/05 00:02:35;;;;;;;2.60;2.40;;;;;;;;;;5019828;28;20204;-64
2023/04/05 00:05:03;;;;;;;3.03;2.67;;;;;;;;;;5025865;28;20248;-64
2023/04/05 00:07:33;;;;;;;2.47;2.27;;;;;;;;;;5018441;28;20291;-64
2023/04/05 00:10:00;;;;;;;4.03;2.93;;;;;;;;;;5018688;28;20212;-64
2023/04/05 00:12:27;;;;;;;2.50;2.30;;;;;;;;;;5021981;28;20213;-64
2023/04/05 00:14:55;;;;;;;3.40;2.47;;;;;;;;;;5019744;28;20204;-64
2023/04/05 00:17:22;;;;;;;2.73;2.33;;;;;;;;;;5020038;28;20219;-64
2023/04/05 00:19:55;;;;;;;3.00;2.60;;;;;;;;;;5017063;28;20213;-64
2023/04/05 00:22:24;;;;;;;3.50;2.60;;;;;;;;;;5022037;28;20212;-64
2023/04/05 00:24:51;;;;;;;3.37;2.70;;;;;;;;;;5017099;28;20236;-64
2023/04/05 00:27:19;;;;;;;2.77;2.57;;;;;;;;;;5018853;28;20253;-64
2023/04/05 00:29:46;;;;;;;2.73;2.47;;;;;;;;;;5017348;28;20219;-64
2023/04/05 00:32:14;;;;;;;3.40;2.90;;;;;;;;;;5021420;28;20211;-64
2023/04/05 00:34:41;;;;;;;3.27;2.90;;;;;;;;;;5021089;28;20221;-64
2023/04/05 00:37:08;;;;;;;3.50;2.80;;;;;;;;;;5019648;28;20223;-64
2023/04/05 00:39:35;;;;;;;3.40;3.10;;;;;;;;;;5027991;28;20219;-64
2023/04/05 00:42:03;;;;;;;3.73;2.73;;;;;;;;;;5025450;28;20200;-64
2023/04/05 00:44:33;;;;;;;3.37;2.60;;;;;;;;;;5020943;28;20224;-64
2023/04/05 00:47:00;;;;;;;4.07;2.83;;;;;;;;;;5021711;28;20215;-64
2023/04/05 00:49:29;;;;;;;4.03;2.80;;;;;;;;;;5020553;28;20215;-64
2023/04/05 00:51:57;;;;;;;4.37;2.87;;;;;;;;;;5021847;28;20204;-64
2023/04/05 00:54:24;;;;;;;3.17;2.73;;;;;;;;;;5020171;28;20205;-64
2023/04/05 00:56:52;;;;;;;3.57;2.70;;;;;;;;;;5020354;28;20205;-64
2023/04/05 00:59:19;;;;;;;3.00;2.70;;;;;;;;;;5016142;28;20215;-64
2023/04/05 01:01:53;;;;;;;3.07;2.73;;;;;;;;;;5019836;28;20239;-64
2023/04/05 01:04:22;;;;;;;2.43;2.20;;;;;;;;;;5019558;28;20235;-64
2023/04/05 01:06:58;;;;;;;2.80;2.50;;;;;;;;;;5022280;28;20243;-64
2023/04/05 01:09:33;;;;;;;3.63;2.47;;;;;;;;;;5017602;28;20250;-64
2023/04/05 01:12:03;;;;;;;3.77;2.60;;;;;;;;;;5021061;28;20203;-64
2023/04/05 01:14:30;;;;;;;2.77;2.50;;;;;;;;;;5019213;28;20200;-63
2023/04/05 01:16:57;;;;;;;2.70;2.37;;;;;;;;;;5022678;28;20285;-64
2023/04/05 01:19:27;;;;;;;2.70;2.47;;;;;;;;;;5018536;28;20270;-64
2023/04/05 01:22:25;;;;;;;4.47;3.10;;;;;;;;;;5011792;28;20247;-64
2023/04/05 01:25:03;;;;;;;4.50;2.90;;;;;;;;;;4982762;28;20352;-64
2023/04/05 01:27:39;;;;;;;4.80;3.07;;;;;;;;;;5008529;28;20236;-64
2023/04/05 01:30:10;;;;;;;3.37;2.60;;;;;;;;;;5017543;28;20212;-64
2023/04/05 01:32:42;;;;;;;2.80;2.43;;;;;;;;;;5019186;28;20215;-64
2023/04/05 01:35:11;;;;;;;2.87;2.57;;;;;;;;;;5020502;28;20206;-64
2023/04/05 01:37:39;;;;;;;2.67;2.43;;;;;;;;;;5020759;28;20212;-64
2023/04/05 01:40:07;;;;;;;5.77;2.87;;;;;;;;;;5016413;28;20212;-64
2023/04/05 01:42:34;;;;;;;3.70;2.43;;;;;;;;;;5021905;28;20267;-65
2023/04/05 01:45:01;;;;;;;3.97;2.80;;;;;;;;;;5020815;28;20229;-64
2023/04/05 01:47:30;;;;;;;4.30;2.50;;;;;;;;;;5020761;28;20211;-64
2023/04/05 01:49:57;;;;;;;2.47;2.27;;;;;;;;;;5020225;28;20208;-64
2023/04/05 01:52:24;;;;;;;2.70;2.40;;;;;;;;;;5019067;28;20215;-64
2023/04/05 01:54:51;;;;;;;3.10;2.50;;;;;;;;;;5023659;28;20200;-64
2023/04/05 01:57:18;;;;;;;3.53;2.80;;;;;;;;;;5019882;28;20200;-64
2023/04/05 01:59:45;;;;;;;2.80;2.50;;;;;;;;;;5019659;28;20211;-64
2023/04/05 02:02:13;;;;;;;2.93;2.67;;;;;;;;;;5019500;28;20211;-64
2023/04/05 02:04:42;;;;;;;3.50;2.70;;;;;;;;;;5020013;28;20232;-64
2023/04/05 02:07:09;;;;;;;3.27;2.50;;;;;;;;;;5011368;28;20311;-64
2023/04/05 02:09:36;;;;;;;2.50;2.30;;;;;;;;;;5011087;28;20201;-64
2023/04/05 02:12:03;;;;;;;3.03;2.73;;;;;;;;;;5013660;28;20208;-64
2023/04/05 02:14:31;;;;;;;3.80;2.60;;;;;;;;;;5014996;28;20212;-64
2023/04/05 02:17:01;;;;;;;2.80;2.60;;;;;;;;;;5024996;28;20205;-64
2023/04/05 02:19:39;;;;;;;2.67;2.47;;;;;;;;;;5025969;28;20207;-64
2023/04/05 02:22:08;;;;;;;3.43;2.73;;;;;;;;;;5022336;28;20213;-64
2023/04/05 02:24:35;;;;;;;2.93;2.50;;;;;;;;;;5023968;28;20243;-64
2023/04/05 02:27:02;;;;;;;3.83;2.90;;;;;;;;;;5024381;28;20211;-64
2023/04/05 02:29:30;;;;;;;5.57;2.83;;;;;;;;;;5020441;28;20241;-64
2023/04/05 02:31:57;;;;;;;3.17;2.87;;;;;;;;;;5022563;28;20217;-64
2023/04/05 02:34:26;;;;;;;3.40;3.00;;;;;;;;;;5021924;28;20213;-64
2023/04/05 02:36:54;;;;;;;3.83;2.73;;;;;;;;;;5020822;28;20212;-64
2023/04/05 02:39:22;;;;;;;4.03;2.87;;;;;;;;;;5022290;28;20255;-64
2023/04/05 02:41:49;;;;;;;3.40;3.00;;;;;;;;;;5014546;28;20209;-64
2023/04/05 02:44:16;;;;;;;3.37;3.07;;;;;;;;;;5014511;28;20291;-64
2023/04/05 02:46:44;;;;;;;6.07;2.80;;;;;;;;;;5022026;28;20200;-64
2023/04/05 02:49:11;;;;;;;3.40;2.70;;;;;;;;;;5020249;28;20209;-64
2023/04/05 02:51:38;;;;;;;3.70;2.90;;;;;;;;;;5022170;28;20204;-64
2023/04/05 02:54:05;;;;;;;3.03;2.77;;;;;;;;;;5022411;28;20205;-64
2023/04/05 02:56:34;;;;;;;3.73;2.97;;;;;;;;;;5020970;28;20204;-64
2023/04/05 02:59:01;;;;;;;3.17;2.70;;;;;;;;;;5023046;28;20255;-64
2023/04/05 03:01:29;;;;;;;3.00;2.70;;;;;;;;;;5021019;28;20295;-64
2023/04/05 03:03:56;;;;;;;4.50;2.90;;;;;;;;;;5026998;28;20218;-64
2023/04/05 03:06:23;;;;;;;3.50;2.57;;;;;;;;;;5024437;28;20232;-64
2023/04/05 03:08:50;;;;;;;3.40;3.10;;;;;;;;;;5023296;28;20338;-64
2023/04/05 03:11:17;;;;;;;3.13;2.70;;;;;;;;;;5019380;28;20217;-64
2023/04/05 03:13:46;;;;;;;3.73;2.90;;;;;;;;;;5016830;28;20209;-64
2023/04/05 03:16:13;;;;;;;3.40;3.03;;;;;;;;;;5020055;28;20204;-64
2023/04/05 03:18:40;;;;;;;3.60;2.97;;;;;;;;;;5018025;28;20212;-64
2023/04/05 03:21:10;;;;;;;3.20;2.90;;;;;;;;;;5021702;28;20201;-64
2023/04/05 03:23:37;;;;;;;3.10;2.80;;;;;;;;;;5018874;28;20316;-64
2023/04/05 03:26:05;;;;;;;3.57;3.10;;;;;;;;;;5028922;28;20216;-64
2023/04/05 03:28:32;;;;;;;3.03;2.73;;;;;;;;;;5022554;28;20241;-64
2023/04/05 03:31:01;;;;;;;4.63;3.10;;;;;;;;;;5019010;28;20215;-65
2023/04/05 03:33:28;;;;;;;3.57;2.90;;;;;;;;;;5017886;28;20212;-64
2023/04/05 03:35:55;;;;;;;3.47;3.13;;;;;;;;;;5023263;28;20208;-64
2023/04/05 03:38:22;;;;;;;3.53;3.00;;;;;;;;;;5020553;28;20234;-64
2023/04/05 03:40:49;;;;;;;3.47;3.13;;;;;;;;;;5024688;28;20204;-64
2023/04/05 03:43:16;;;;;;;4.30;3.00;;;;;;;;;;5021125;28;20267;-64
2023/04/05 03:45:43;;;;;;;3.33;3.03;;;;;;;;;;5022729;28;20228;-64
2023/04/05 03:48:12;;;;;;;3.60;3.30;;;;;;;;;;5018789;28;20226;-64
2023/04/05 03:50:39;;;;;;;3.27;2.97;;;;;;;;;;5021640;28;20280;-64
2023/04/05 03:53:06;;;;;;;3.77;3.17;;;;;;;;;;5024324;28;20200;-64
2023/04/05 03:55:33;;;;;;;3.73;3.30;;;;;;;;;;5015991;28;20204;-64
2023/04/05 03:58:00;;;;;;;4.93;3.03;;;;;;;;;;5019744;28;20207;-64
2023/04/05 04:00:28;;;;;;;3.70;3.40;;;;;;;;;;5016799;28;20208;-64
2023/04/05 04:02:55;;;;;;;3.53;3.03;;;;;;;;;;5020714;28;20269;-65
2023/04/05 04:05:24;;;;;;;3.50;3.20;;;;;;;;;;5023678;28;20221;-64
2023/04/05 04:07:51;;;;;;;4.63;3.60;;;;;;;;;;5013268;28;20457;-64
2023/04/05 04:10:18;;;;;;;4.40;4.00;;;;;;;;;;5012981;28;20209;-64
2023/04/05 04:12:45;;;;;;;4.37;3.97;;;;;;;;;;5018032;28;20255;-64
2023/04/05 04:15:13;;;;;;;4.67;3.60;;;;;;;;;;5021681;28;20200;-64
2023/04/05 04:17:40;;;;;;;3.73;3.23;;;;;;;;;;5012865;28;20209;-64
2023/04/05 04:20:09;;;;;;;3.87;3.20;;;;;;;;;;5016772;28;20210;-64
2023/04/05 04:22:39;;;;;;;5.77;3.40;;;;;;;;;;5022563;28;20272;-64
2023/04/05 04:25:09;;;;;;;4.10;3.50;;;;;;;;;;5019713;28;20232;-64
2023/04/05 04:27:38;;;;;;;3.50;3.20;;;;;;;;;;5020552;28;20236;-64
2023/04/05 04:30:06;;;;;;;4.20;3.80;;;;;;;;;;5019166;28;20216;-64
2023/04/05 04:32:53;;;;;;;4.00;3.60;;;;;;;;;;5021007;28;20258;-64
2023/04/05 04:35:23;;;;;;;5.70;3.60;;;;;;;;;;5022017;28;20201;-65
2023/04/05 04:37:53;;;;;;;4.47;3.23;;;;;;;;;;5025940;28;20208;-65
2023/04/05 04:40:21;;;;;;;3.97;3.57;;;;;;;;;;5023674;28;20219;-64
2023/04/05 04:42:49;;;;;;;6.30;3.60;;;;;;;;;;5018390;28;20208;-64
2023/04/05 04:45:17;;;;;;;5.63;3.50;;;;;;;;;;5012550;28;20227;-65
2023/04/05 04:47:44;;;;;;;4.17;3.77;;;;;;;;;;5019082;28;20238;-64
2023/04/05 04:50:12;;;;;;;3.50;3.20;;;;;;;;;;5019134;28;20216;-64
2023/04/05 04:52:39;;;;;;;3.93;3.50;;;;;;;;;;5021019;28;20307;-64
2023/04/05 04:55:09;;;;;;;4.13;3.40;;;;;;;;;;5021051;28;20204;-64
2023/04/05 04:57:36;;;;;;;3.63;3.23;;;;;;;;;;5024373;28;20207;-64
2023/04/05 05:00:11;;;;;;;3.87;3.57;;;;;;;;;;5019475;28;20220;-64
2023/04/05 05:02:38;;;;;;;4.57;3.80;;;;;;;;;;5015765;28;20247;-64
2023/04/05 05:05:06;;;;;;;4.00;3.70;;;;;;;;;;5011770;28;20225;-64
2023/04/05 05:07:33;;;;;;;4.13;3.73;;;;;;;;;;5018126;28;20211;-64
2023/04/05 05:10:00;;;;;;;3.70;3.40;;;;;;;;;;5017794;28;20209;-64
2023/04/05 05:12:30;;;;;;;4.23;3.70;;;;;;;;;;5025256;28;20213;-64
2023/04/05 05:14:57;;;;;;;4.43;3.77;;;;;;;;;;5021516;28;20204;-64
2023/04/05 05:17:24;;;;;;;4.97;3.87;;;;;;;;;;5024926;28;20299;-64
2023/04/05 05:19:51;;;;;;;6.07;3.83;;;;;;;;;;5022271;28;20215;-64
2023/04/05 05:22:18;;;;;;;3.90;3.57;;;;;;;;;;5018747;28;20207;-64
2023/04/05 05:24:46;;;;;;;6.00;4.00;;;;;;;;;;5021586;28;20290;-67
2023/04/05 05:27:14;;;;;;;5.70;4.00;;;;;;;;;;5020532;28;20305;-65
2023/04/05 05:29:42;;;;;;;4.40;4.00;;;;;;;;;;5017058;28;20268;-65
2023/04/05 05:32:13;;;;;;;4.37;3.70;;;;;;;;;;5020330;28;20200;-65
2023/04/05 05:34:43;;;;;;;4.47;3.83;;;;;;;;;;5019018;28;20200;-65
2023/04/05 05:37:10;;;;;;;7.00;4.37;;;;;;;;;;5010787;28;20240;-65
2023/04/05 05:39:38;;;;;;;4.70;3.80;;;;;;;;;;5010701;28;20209;-65
2023/04/05 05:42:05;;;;;;;6.30;3.40;;;;;;;;;;5019496;28;20210;-65
2023/04/05 05:44:32;;;;;;;4.13;3.73;;;;;;;;;;5016501;28;20258;-65
2023/04/05 05:47:00;;;;;;;4.53;3.80;;;;;;;;;;5023570;28;20278;-65
2023/04/05 05:49:27;;;;;;;3.93;3.53;;;;;;;;;;5010528;28;20208;-65
2023/04/05 05:51:55;;;;;;;5.97;3.83;;;;;;;;;;5010359;28;20213;-65
2023/04/05 05:54:22;;;;;;;4.30;3.90;;;;;;;;;;5024135;28;20204;-65
2023/04/05 05:56:49;;;;;;;4.93;4.13;;;;;;;;;;5024163;28;20276;-65
2023/04/05 05:59:17;;;;;;;4.00;3.60;;;;;;;;;;5023509;28;20212;-65
2023/04/05 06:01:45;;;;;;;4.40;4.00;;;;;;;;;;5025702;28;20222;-65
2023/04/05 06:04:15;;;;;;;4.97;4.10;;;;;;;;;;5024012;28;20208;-65
2023/04/05 06:06:45;;;;;;;6.33;5.13;;;;;;;;;;5018560;28;20236;-65
2023/04/05 06:09:12;;;;;;;6.00;4.77;;;;;;;;;;5021045;28;20211;-65
2023/04/05 06:11:39;;;;;;;5.67;5.00;;;;;;;;;;5018362;28;20208;-65
2023/04/05 06:14:06;;;;;;;6.60;5.30;;;;;;;;;;5017896;28;20217;-65
2023/04/05 06:16:34;;;;;;;5.33;4.60;;;;;;;;;;5020819;28;20340;-65
2023/04/05 06:19:01;;;;;;;4.87;4.37;;;;;;;;;;5022469;28;20204;-65
2023/04/05 06:21:29;;;;;;;6.50;5.17;;;;;;;;;;5014219;28;20212;-65
2023/04/05 06:23:57;;;;;;;6.47;5.53;;;;;;;;;;5024225;28;20212;-65
2023/04/05 06:26:26;;;;;;;5.60;4.87;;;;;;;;;;5026888;28;20232;-65
2023/04/05 06:28:53;;;;;;;5.90;4.87;;;;;;;;;;4987349;28;1083895;-65
2023/04/05 06:31:21;;;;;;;8.47;6.50;;;;;;;;;;5028050;28;20223;-65
2023/04/05 06:33:48;;;;;;;8.47;6.40;;;;;;;;;;5025790;28;20208;-65
2023/04/05 06:36:15;;;;;;;9.67;7.37;;;;;;;;;;5020277;28;20216;-65
2023/04/05 06:38:43;;;;;;;8.33;7.27;;;;;;;;;;5026252;28;20227;-65
2023/04/05 06:41:10;;;;;;;8.60;7.07;;;;;;;;;;5022970;28;20227;-65
2023/04/05 06:43:37;;;;;;;7.27;6.40;;;;;;;;;;5024263;28;20216;-65
2023/04/05 06:46:07;;;;;;;8.70;6.90;;;;;;;;;;5020778;28;20216;-65
2023/04/05 06:48:34;;;;;;;9.23;8.20;;;;;;;;;;5021019;28;20219;-65
2023/04/05 06:51:02;;;;;;;7.43;6.13;;;;;;;;;;5023736;28;20205;-65
2023/04/05 06:53:29;;;;;;;6.33;4.70;;;;;;;;;;5030496;28;20211;-65
2023/04/05 06:55:58;;;;;;;4.83;4.13;;;;;;;;;;5026338;28;20282;-65
2023/04/05 06:58:26;;;;;;;5.33;4.20;;;;;;;;;;5014396;28;20213;-64
2023/04/05 07:00:53;;;;;;;4.90;4.30;;;;;;;;;;5019890;28;20211;-64
2023/04/05 07:03:21;;;;;;;4.93;4.20;;;;;;;;;;5020788;28;20212;-64
2023/04/05 07:05:52;;;;;;;4.37;3.93;;;;;;;;;;5016397;28;20239;-64
2023/04/05 07:08:19;;;;;;;4.10;3.70;;;;;;;;;;5023481;28;20231;-63
2023/04/05 07:10:47;;;;;;;4.37;3.90;;;;;;;;;;5026231;28;20215;-63
2023/04/05 07:13:15;;;;;;;6.70;3.90;;;;;;;;;;5023049;28;20208;-63
2023/04/05 07:15:43;;;;;;;7.43;4.40;;;;;;;;;;5024653;28;20221;-63
2023/04/05 07:18:10;;;;;;;5.20;4.40;;;;;;;;;;5018986;28;20224;-63
2023/04/05 07:20:37;;;;;;;5.57;4.43;;;;;;;;;;5024016;28;20214;-62
2023/04/05 07:23:06;;;;;;;3.97;3.60;;;;;;;;;;5019844;28;20204;-62
2023/04/05 07:25:33;;;;;;;6.20;3.60;;;;;;;;;;5018083;28;20280;-62
2023/04/05 07:28:00;;;;;;;4.67;3.60;;;;;;;;;;5018985;28;20244;-62
2023/04/05 07:30:28;;;;;;;4.63;3.47;;;;;;;;;;5015555;28;20279;-62
2023/04/05 07:32:56;;;;;;;4.03;3.60;;;;;;;;;;5027637;28;20208;-62
2023/04/05 07:35:23;;;;;;;4.60;3.47;;;;;;;;;;5022695;28;20215;-62
2023/04/05 07:37:51;;;;;;;8.10;5.40;;;;;;;;;;5022386;28;20200;-61
2023/04/05 07:40:18;;;;;;;4.27;3.47;;;;;;;;;;5026464;28;20261;-62
2023/04/05 07:42:45;;;;;;;3.43;3.13;;;;;;;;;;5014157;28;20216;-61
2023/04/05 07:45:12;;;;;;;5.77;4.40;;;;;;;;;;5024020;28;20236;-61
2023/04/05 07:47:41;;;;;;;5.07;4.57;;;;;;;;;;5019135;28;20324;-61
2023/04/05 07:50:13;;;;;;;5.50;3.60;;;;;;;;;;5020396;28;20204;-62
2023/04/05 07:52:40;;;;;;;3.73;3.27;;;;;;;;;;5022383;28;20272;-62
2023/04/05 07:55:08;;;;;;;3.50;3.10;;;;;;;;;;5019845;28;20211;-61
2023/04/05 07:57:36;;;;;;;4.57;3.77;;;;;;;;;;5017305;28;20383;-61
2023/04/05 08:00:04;;;;;;;4.27;3.87;;;;;;;;;;5021896;28;20216;-61
2023/04/05 08:02:33;;;;;;;4.40;3.47;;;;;;;;;;5018046;28;20200;-61
2023/04/05 08:05:02;;;;;;;3.37;3.07;;;;;;;;;;5021064;28;20295;-62
2023/04/05 08:07:30;;;;;;;4.80;3.50;;;;;;;;;;5015830;28;20251;-62
2023/04/05 08:09:58;;;;;;;3.77;3.47;;;;;;;;;;5023403;28;20235;-62
2023/04/05 08:12:25;;;;;;;4.33;3.50;;;;;;;;;;5021101;28;20207;-61
2023/04/05 08:14:52;;;;;;;4.30;3.50;;;;;;;;;;5020954;28;20212;-61
2023/04/05 08:17:20;;;;;;;6.30;4.67;;;;;;;;;;5022168;28;20208;-62
2023/04/05 08:19:48;;;;;;;5.87;5.27;;;;;;;;;;5020308;28;20216;-62
2023/04/05 08:22:17;;;;;;;4.63;3.50;;;;;;;;;;5018679;28;20212;-61
2023/04/05 08:24:45;;;;;;;6.07;4.50;;;;;;;;;;5022691;28;20200;-61
2023/04/05 08:27:12;;;;;;;4.30;3.73;;;;;;;;;;5019001;28;20231;-62
2023/04/05 08:29:39;;;;;;;4.43;3.77;;;;;;;;;;5020121;28;20214;-62
2023/04/05 08:32:07;;;;;;;8.03;3.63;;;;;;;;;;5023387;28;20217;-62
2023/04/05 08:34:34;;;;;;;4.80;3.60;;;;;;;;;;5021617;28;20284;-62
2023/04/05 08:37:01;;;;;;;4.63;4.00;;;;;;;;;;5017740;28;20215;-62
2023/04/05 08:39:32;;;;;;;4.33;3.40;;;;;;;;;;5017169;28;20205;-61
2023/04/05 08:42:01;;;;;;;4.70;3.77;;;;;;;;;;5018371;28;20213;-62
2023/04/05 08:44:31;;;;;;;4.47;4.07;;;;;;;;;;5021820;28;20199;-61
2023/04/05 08:46:59;;;;;;;5.30;4.20;;;;;;;;;;5019694;28;20223;-61
2023/04/05 08:49:27;;;;;;;4.27;3.87;;;;;;;;;;5020266;28;20219;-61
2023/04/05 08:51:54;;;;;;;4.50;3.70;;;;;;;;;;5017174;28;20201;-62
2023/04/05 08:54:21;;;;;;;4.73;3.90;;;;;;;;;;5018692;28;20224;-62
2023/04/05 08:56:50;;;;;;;4.63;3.90;;;;;;;;;;5024423;28;20197;-62
2023/04/05 08:59:19;;;;;;;3.80;3.50;;;;;;;;;;5021205;28;20203;-62
2023/04/05 09:01:47;;;;;;;4.30;3.90;;;;;;;;;;5012112;28;20240;-62
2023/04/05 09:04:16;;;;;;;3.83;3.53;;;;;;;;;;5015590;28;20204;-62
2023/04/05 09:06:44;;;;;;;4.20;3.60;;;;;;;;;;5021513;28;20228;-62
2023/04/05 09:09:11;;;;;;;4.03;3.63;;;;;;;;;;5019649;28;20216;-62
2023/04/05 09:11:40;;;;;;;4.30;3.90;;;;;;;;;;5017051;28;20213;-62
2023/04/05 09:14:10;;;;;;;4.47;3.70;;;;;;;;;;5017361;28;20208;-62
2023/04/05 09:16:38;;;;;;;4.93;3.67;;;;;;;;;;5011728;28;20243;-62
2023/04/05 09:19:05;;;;;;;4.10;3.70;;;;;;;;;;5022954;28;20215;-62
2023/04/05 09:21:58;;;;;;;5.30;3.77;;;;;;;;;;5018268;28;20213;-63
2023/04/05 09:24:31;;;;;;;4.07;3.67;;;;;;;;;;5028342;28;20257;-62
2023/04/05 09:27:05;;;;;;;4.43;4.03;;;;;;;;;;5011090;28;20232;-62
2023/04/05 09:29:33;;;;;;;3.80;3.50;;;;;;;;;;5019419;28;20216;-62
2023/04/05 09:32:01;;;;;;;4.70;4.00;;;;;;;;;;5018480;28;20208;-62
2023/04/05 09:34:30;;;;;;;4.03;3.67;;;;;;;;;;5017317;28;20209;-62
2023/04/05 09:36:57;;;;;;;4.23;3.73;;;;;;;;;;5021762;28;20204;-62
2023/04/05 09:39:28;;;;;;;4.10;3.70;;;;;;;;;;5020960;28;20204;-62
2023/04/05 09:42:05;;;;;;;4.03;3.70;;;;;;;;;;5017512;28;20212;-63
2023/04/05 09:44:47;;;;;;;4.27;3.60;;;;;;;;;;5016549;28;20208;-62
2023/04/05 09:47:17;;;;;;;5.63;4.50;;;;;;;;;;5015676;28;20278;-62
2023/04/05 09:49:44;;;;;;;4.77;3.93;;;;;;;;;;5017240;28;20205;-62
2023/04/05 09:52:18;;;;;;;4.03;3.60;;;;;;;;;;5016266;28;20200;-62
2023/04/05 09:54:46;;;;;;;6.77;4.33;;;;;;;;;;5021248;28;20204;-62
2023/04/05 09:57:13;;;;;;;4.07;3.60;;;;;;;;;;5019059;28;20197;-62
2023/04/05 09:59:40;;;;;;;4.13;3.83;;;;;;;;;;5020877;28;20219;-62
2023/04/05 10:02:07;;;;;;;4.13;3.83;;;;;;;;;;5023633;28;20206;-61
2023/04/05 10:04:40;;;;;;;5.17;4.67;;;;;;;;;;5018725;28;20200;-62
2023/04/05 10:07:07;;;;;;;3.60;3.30;;;;;;;;;;5015840;28;20224;-62
2023/04/05 10:09:35;;;;;;;4.63;4.13;;;;;;;;;;5020051;28;20204;-62
2023/04/05 10:12:03;;;;;;;4.73;4.23;;;;;;;;;;5011765;28;20212;-62
2023/04/05 10:14:30;;;;;;;4.40;4.00;;;;;;;;;;5011668;28;20299;-62
2023/04/05 10:17:00;;;;;;;4.67;4.17;;;;;;;;;;5014813;28;20212;-63
2023/04/05 10:19:29;;;;;;;5.43;4.20;;;;;;;;;;5023662;28;20208;-63
2023/04/05 10:22:00;;;;;;;5.30;4.03;;;;;;;;;;5022240;28;20220;-61
2023/04/05 10:24:32;;;;;;;4.20;3.80;;;;;;;;;;5013166;28;20239;-62
2023/04/05 10:27:05;;;;;;;4.90;4.47;;;;;;;;;;5011599;28;20232;-63
2023/04/05 10:29:36;;;;;;;4.63;4.20;;;;;;;;;;5018590;28;20205;-61
2023/04/05 10:32:05;;;;;;;5.03;4.63;;;;;;;;;;5019329;28;20217;-62
2023/04/05 10:34:40;;;;;;;4.90;4.50;;;;;;;;;;5019001;28;20200;-61
2023/04/05 10:37:13;;;;;;;5.25;4.43;;;;;;;;;;5021076;28;20207;-62
2023/04/05 10:39:41;;;;;;;5.68;4.38;;;;;;;;;;5024502;28;20220;-62
2023/04/05 10:42:12;;;;;;;4.93;4.50;;;;;;;;;;5019451;28;20212;-62
2023/04/05 10:44:40;;;;;;;6.65;4.78;;;;;;;;;;5023129;28;20213;-62
2023/04/05 10:47:07;;;;;;;5.53;4.57;;;;;;;;;;5021429;28;20224;-62
2023/04/05 10:49:39;;;;;;;5.10;4.60;;;;;;;;;;5021717;28;20207;-61
2023/04/05 10:52:08;;;;;;;4.57;4.17;;;;;;;;;;5025709;28;20204;-62
2023/04/05 10:54:37;;;;;;;4.80;4.40;;;;;;;;;;5018602;28;20208;-62
2023/04/05 10:57:06;;;;;;;4.20;3.80;;;;;;;;;;5024378;28;20200;-62
2023/04/05 10:59:34;;;;;;;4.60;4.20;;;;;;;;;;5017688;28;20212;-62
2023/04/05 11:02:01;;;;;;;6.25;4.47;;;;;;;;;;5018448;28;20216;-62
2023/04/05 11:04:28;;;;;;;4.75;4.32;;;;;;;;;;5024537;28;20208;-62
2023/04/05 11:07:16;;;;;;;4.63;4.10;;;;;;;;;;5024451;28;20209;-61
2023/04/05 11:09:54;;;;;;;4.90;4.00;;;;;;;;;;5025136;28;20213;-62
2023/04/05 11:12:21;;;;;;;4.85;4.35;;;;;;;;;;5020125;28;20298;-61
2023/04/05 11:14:48;;;;;;;4.85;4.35;;;;;;;;;;5024259;28;20235;-61
2023/04/05 11:17:25;;;;;;;4.80;4.30;;;;;;;;;;5023970;28;20203;-61
2023/04/05 11:19:52;;;;;;;5.68;4.70;;;;;;;;;;5017816;28;20216;-62
2023/04/05 11:22:27;;;;;;;4.75;4.35;;;;;;;;;;5023028;28;20208;-61
2023/04/05 11:24:56;;;;;;;5.43;4.40;;;;;;;;;;5023428;28;20212;-61
2023/04/05 11:27:26;;;;;;;4.90;4.38;;;;;;;;;;5022848;28;20298;-61
2023/04/05 11:29:53;;;;;;;6.25;4.60;;;;;;;;;;5013406;28;20213;-63
2023/04/05 11:32:20;;;;;;;4.70;4.30;;;;;;;;;;5013837;28;20213;-61
2023/04/05 11:34:58;;;;;;;5.35;4.03;;;;;;;;;;5020846;28;20213;-61
2023/04/05 11:37:40;;;;;;;5.65;4.22;;;;;;;;;;5016430;28;20197;-62
2023/04/05 11:40:29;;;;;;;4.30;3.90;;;;;;;;;;5019464;28;20211;-62
2023/04/05 11:43:02;;;;;;;5.20;4.43;;;;;;;;;;5018924;28;20216;-61
2023/04/05 11:45:31;;;;;;;4.60;4.20;;;;;;;;;;5021227;28;20214;-61
2023/04/05 11:47:58;;;;;;;5.22;4.30;;;;;;;;;;5018905;28;20227;-61
2023/04/05 11:50:25;;;;;;;5.32;4.82;;;;;;;;;;5021130;28;20207;-61
2023/04/05 11:53:09;;;;;;;4.35;4.00;;;;;;;;;;5024793;28;20215;-61
2023/04/05 11:55:36;;;;;;;4.07;3.78;;;;;;;;;;5018213;28;20209;-61
2023/04/05 11:58:11;;;;;;;6.95;4.35;;;;;;;;;;5022188;28;20200;-61
2023/04/05 12:00:38;;;;;;;5.63;4.88;;;;;;;;;;5022218;28;20212;-62
2023/04/05 12:03:05;;;;;;;5.72;4.38;;;;;;;;;;5019998;28;20232;-61
2023/04/05 12:05:45;;;;;;;4.50;4.10;;;;;;;;;;5019997;28;20212;-61
2023/04/05 12:08:12;;;;;;;4.68;4.28;;;;;;;;;;5013742;28;20217;-61
2023/04/05 12:10:39;;;;;;;4.38;3.97;;;;;;;;;;5021305;28;20201;-61
2023/04/05 12:13:08;;;;;;;5.05;3.92;;;;;;;;;;5025207;28;20218;-62
2023/04/05 12:15:38;;;;;;;4.55;4.15;;;;;;;;;;5023626;28;20208;-61
2023/04/05 12:18:06;;;;;;;5.20;3.97;;;;;;;;;;5012391;28;20208;-61
2023/04/05 12:20:33;;;;;;;4.90;4.10;;;;;;;;;;5013918;28;20244;-61
2023/04/05 12:23:01;;;;;;;4.40;4.00;;;;;;;;;;5022156;28;20208;-61
2023/04/05 12:25:29;;;;;;;4.40;3.78;;;;;;;;;;5021463;28;20300;-61
2023/04/05 12:27:56;;;;;;;4.57;3.40;;;;;;;;;;5017677;28;20241;-61
2023/04/05 12:30:24;;;;;;;4.53;3.67;;;;;;;;;;5020782;28;20208;-61
2023/04/05 12:32:52;;;;;;;4.25;3.45;;;;;;;;;;5018202;28;20263;-61
2023/04/05 12:35:20;;;;;;;4.45;4.05;;;;;;;;;;5020766;28;20204;-61
2023/04/05 12:37:47;;;;;;;4.25;3.85;;;;;;;;;;5018766;28;20205;-61
2023/04/05 12:40:15;;;;;;;4.70;4.30;;;;;;;;;;5021390;28;20212;-61
2023/04/05 12:42:42;;;;;;;4.20;3.80;;;;;;;;;;5022809;28;20212;-61
2023/04/05 12:45:11;;;;;;;4.53;3.72;;;;;;;;;;5019588;28;20201;-60
2023/04/05 12:47:49;;;;;;;4.10;3.80;;;;;;;;;;5018196;28;20232;-61
2023/04/05 12:50:17;;;;;;;4.22;3.83;;;;;;;;;;5019723;28;20215;-61
2023/04/05 12:52:55;;;;;;;4.28;3.92;;;;;;;;;;5026324;28;20212;-61
2023/04/05 12:55:22;;;;;;;4.70;4.30;;;;;;;;;;5022490;28;20219;-61
2023/04/05 12:57:53;;;;;;;4.97;4.18;;;;;;;;;;5022472;28;20211;-61
2023/04/05 13:00:23;;;;;;;4.70;4.30;;;;;;;;;;5021170;28;20219;-61
2023/04/05 13:02:52;;;;;;;4.25;3.75;;;;;;;;;;5019778;28;20204;-61
2023/04/05 13:05:20;;;;;;;4.38;3.53;;;;;;;;;;5018168;28;20196;-61
2023/04/05 13:07:47;;;;;;;3.80;3.50;;;;;;;;;;5020159;28;20221;-61
2023/04/05 13:10:15;;;;;;;4.03;3.70;;;;;;;;;;5019484;28;20204;-61
2023/04/05 13:12:42;;;;;;;4.65;4.10;;;;;;;;;;5022992;28;20211;-61
2023/04/05 13:15:09;;;;;;;4.50;3.70;;;;;;;;;;5017028;28;20215;-62
2023/04/05 13:17:37;;;;;;;4.13;3.55;;;;;;;;;;5019137;28;20201;-61
2023/04/05 13:20:06;;;;;;;4.10;3.70;;;;;;;;;;5020154;28;20211;-61
2023/04/05 13:22:33;;;;;;;4.35;3.97;;;;;;;;;;5018564;28;20213;-61
2023/04/05 13:25:00;;;;;;;4.65;4.25;;;;;;;;;;5026729;28;20212;-61
2023/04/05 13:27:27;;;;;;;5.18;4.00;;;;;;;;;;5020510;28;20294;-61
2023/04/05 13:29:55;;;;;;;4.35;3.95;;;;;;;;;;5022325;28;20208;-61
2023/04/05 13:32:22;;;;;;;4.65;4.22;;;;;;;;;;5021303;28;20220;-61
2023/04/05 13:34:49;;;;;;;4.07;3.78;;;;;;;;;;5022629;28;20212;-61
2023/04/05 13:37:17;;;;;;;4.70;4.20;;;;;;;;;;5024185;28;20209;-61
2023/04/05 13:39:44;;;;;;;4.25;3.90;;;;;;;;;;5021949;28;20216;-61
2023/04/05 13:42:12;;;;;;;4.10;3.80;;;;;;;;;;5018302;28;20235;-61
2023/04/05 13:44:39;;;;;;;6.25;4.72;;;;;;;;;;5018881;28;20218;-61
2023/04/05 13:47:06;;;;;;;4.95;4.50;;;;;;;;;;5018736;28;20216;-61
2023/04/05 13:49:33;;;;;;;5.15;4.30;;;;;;;;;;5024365;28;20212;-61
2023/04/05 13:52:00;;;;;;;4.30;3.90;;;;;;;;;;5015372;28;20216;-62
2023/04/05 13:54:29;;;;;;;4.72;4.32;;;;;;;;;;5017457;28;20201;-61
2023/04/05 13:56:57;;;;;;;6.60;4.15;;;;;;;;;;5017775;28;20208;-62
2023/04/05 13:59:25;;;;;;;5.00;4.30;;;;;;;;;;5016165;28;20207;-61
2023/04/05 14:01:52;;;;;;;4.28;3.88;;;;;;;;;;5027793;28;20204;-61
2023/04/05 14:04:19;;;;;;;4.88;4.22;;;;;;;;;;5021940;28;20209;-61
2023/04/05 14:06:46;;;;;;;5.00;3.70;;;;;;;;;;5017611;28;20231;-62
2023/04/05 14:09:13;;;;;;;4.47;4.07;;;;;;;;;;5024466;28;20229;-61
2023/04/05 14:11:42;;;;;;;4.65;4.25;;;;;;;;;;5020804;28;20213;-61
2023/04/05 14:14:09;;;;;;;4.53;4.10;;;;;;;;;;5025926;28;20220;-61
2023/04/05 14:16:36;;;;;;;5.30;4.53;;;;;;;;;;5022812;28;20216;-61
2023/04/05 14:19:04;;;;;;;5.00;4.43;;;;;;;;;;5020883;28;20297;-61
2023/04/05 14:21:31;;;;;;;5.40;3.67;;;;;;;;;;5024441;28;20267;-61
2023/04/05 14:23:59;;;;;;;4.45;4.00;;;;;;;;;;5019980;28;20205;-61
2023/04/05 14:26:26;;;;;;;4.38;3.95;;;;;;;;;;5014900;28;20275;-61
2023/04/05 14:28:55;;;;;;;5.13;4.28;;;;;;;;;;5020346;28;20281;-61
2023/04/05 14:31:25;;;;;;;5.63;5.00;;;;;;;;;;5023326;28;20242;-61
2023/04/05 14:33:52;;;;;;;6.47;4.90;;;;;;;;;;5017291;28;20209;-61
2023/04/05 14:36:19;;;;;;;5.47;4.97;;;;;;;;;;5024750;28;20332;-62
2023/04/05 14:38:46;;;;;;;7.88;6.97;;;;;;;;;;5025415;28;20236;-61
2023/04/05 14:41:14;;;;;;;5.10;4.55;;;;;;;;;;5024258;28;20243;-61
2023/04/05 14:43:42;;;;;;;5.57;4.95;;;;;;;;;;5020854;28;20200;-61
2023/04/05 14:46:10;;;;;;;6.10;5.40;;;;;;;;;;5020708;28;20200;-61
2023/04/05 14:48:37;;;;;;;4.85;4.45;;;;;;;;;;5016872;28;20260;-61
2023/04/05 14:51:05;;;;;;;4.78;4.28;;;;;;;;;;5025168;28;20204;-61